Time;durP1;ratioP1;P1;durP2;ratioP2;P2;SDS_P1;SDS_P2;PMS_P1;PMS_P2;Temp;Humidity;BMP_temperature;BMP_pressure;BME280_temperature;BME280_humidity;BME280_pressure;Samples;Min_cycle;Max_cycle;Signal;HPM_P1;HPM_P2
2022/02/25 00:00:13;;;;;;;3.20;2.33;;;4.00;97.30;;;;;;5039918;28;20187;-81
2022/02/25 00:02:38;;;;;;;2.50;1.77;;;3.90;97.30;;;;;;5058056;28;20199;-81
2022/02/25 00:05:04;;;;;;;2.70;1.60;;;3.90;97.30;;;;;;5042345;28;20453;-81
2022/02/25 00:07:30;;;;;;;2.20;1.70;;;3.90;97.30;;;;;;5058234;28;20184;-80
2022/02/25 00:09:55;;;;;;;2.10;1.77;;;3.80;97.30;;;;;;5058046;28;21137;-80
2022/02/25 00:12:21;;;;;;;2.93;1.60;;;3.70;97.30;;;;;;5057538;28;20541;-80
2022/02/25 00:14:46;;;;;;;1.93;1.80;;;3.70;97.30;;;;;;5057207;28;20213;-81
2022/02/25 00:17:12;;;;;;;3.00;1.70;;;3.60;97.30;;;;;;5058322;28;20666;-81
2022/02/25 00:19:37;;;;;;;3.23;1.90;;;3.70;97.30;;;;;;5059088;28;20233;-81
2022/02/25 00:22:03;;;;;;;2.07;1.93;;;3.60;97.30;;;;;;5059177;28;20192;-81
2022/02/25 00:24:29;;;;;;;2.07;1.80;;;3.60;97.30;;;;;;5043406;28;20537;-80
2022/02/25 00:26:54;;;;;;;2.13;2.00;;;3.60;97.30;;;;;;5042547;28;20168;-81
2022/02/25 00:29:20;;;;;;;2.83;2.03;;;3.60;97.30;;;;;;5042656;28;20182;-81
2022/02/25 00:31:45;;;;;;;2.53;1.90;;;3.50;97.30;;;;;;5042879;28;20178;-80
2022/02/25 00:34:11;;;;;;;1.80;1.60;;;3.50;97.30;;;;;;5044562;28;20781;-81
2022/02/25 00:36:36;;;;;;;2.80;1.90;;;3.50;97.30;;;;;;5063558;28;20171;-81
2022/02/25 00:39:02;;;;;;;3.77;2.57;;;3.50;97.30;;;;;;5063169;28;20618;-81
2022/02/25 00:41:28;;;;;;;2.10;1.73;;;3.40;97.30;;;;;;5061253;28;20286;-81
2022/02/25 00:43:53;;;;;;;1.93;1.83;;;3.40;97.30;;;;;;5077748;28;21225;-81
2022/02/25 00:46:19;;;;;;;2.00;1.90;;;3.40;97.30;;;;;;5058891;28;20187;-81
2022/02/25 00:48:44;;;;;;;2.97;2.00;;;3.40;97.30;;;;;;5060633;28;20645;-81
2022/02/25 00:51:10;;;;;;;2.40;1.87;;;3.30;97.30;;;;;;5078302;28;20186;-81
2022/02/25 00:53:35;;;;;;;2.93;1.90;;;3.30;97.30;;;;;;5061499;28;20175;-81
2022/02/25 00:56:01;;;;;;;3.50;2.30;;;3.30;97.30;;;;;;5060054;28;20199;-80
2022/02/25 00:58:26;;;;;;;3.27;1.90;;;3.30;97.30;;;;;;5041765;28;20179;-81
2022/02/25 01:00:51;;;;;;;3.07;2.07;;;3.30;97.30;;;;;;5041940;28;20207;-80
2022/02/25 01:03:17;;;;;;;4.60;2.10;;;3.20;97.30;;;;;;5041623;28;20265;-81
2022/02/25 01:05:43;;;;;;;3.90;2.40;;;3.30;97.30;;;;;;5040787;28;20553;-81
2022/02/25 01:08:09;;;;;;;4.23;2.43;;;3.20;97.30;;;;;;5040471;28;20322;-81
2022/02/25 01:10:36;;;;;;;5.40;2.60;;;3.20;97.30;;;;;;5041391;28;20176;-81
2022/02/25 01:13:02;;;;;;;3.73;2.40;;;3.20;97.30;;;;;;5041059;28;20422;-81
2022/02/25 01:15:28;;;;;;;3.10;2.13;;;3.20;97.30;;;;;;5041062;28;20477;-81
2022/02/25 01:17:53;;;;;;;3.40;2.77;;;3.20;97.30;;;;;;5041489;28;20418;-81
2022/02/25 01:20:19;;;;;;;8.90;2.27;;;3.10;97.30;;;;;;5040332;28;20176;-81
2022/02/25 01:22:45;;;;;;;4.13;2.17;;;3.20;97.30;;;;;;5040150;28;20212;-81
2022/02/25 01:25:11;;;;;;;4.90;2.47;;;3.20;97.30;;;;;;5041560;28;20210;-81
2022/02/25 01:27:37;;;;;;;2.60;2.10;;;3.20;97.30;;;;;;5059632;28;20402;-81
2022/02/25 01:30:07;;;;;;;3.13;1.80;;;3.20;97.30;;;;;;5042493;28;20426;-80
2022/02/25 01:32:33;;;;;;;2.70;1.80;;;3.20;97.30;;;;;;5041969;28;20689;-81
2022/02/25 01:34:58;;;;;;;4.90;2.47;;;3.20;97.30;;;;;;5040751;28;20474;-81
2022/02/25 01:37:25;;;;;;;2.93;1.97;;;3.20;97.30;;;;;;5040570;28;20274;-81
2022/02/25 01:39:51;;;;;;;3.07;2.10;;;3.20;97.30;;;;;;5040945;28;20549;-81
2022/02/25 01:42:17;;;;;;;3.97;2.40;;;3.20;97.30;;;;;;5039610;28;20507;-81
2022/02/25 01:44:43;;;;;;;3.63;2.13;;;3.20;97.30;;;;;;5038869;28;20434;-81
2022/02/25 01:47:11;;;;;;;4.57;2.30;;;3.20;97.30;;;;;;5038784;28;20336;-81
2022/02/25 01:49:36;;;;;;;4.10;2.63;;;3.20;97.30;;;;;;5038929;28;20176;-81
2022/02/25 01:52:06;;;;;;;5.20;2.70;;;3.20;97.30;;;;;;5039265;28;20429;-81
2022/02/25 01:54:33;;;;;;;8.27;3.10;;;3.20;97.30;;;;;;5039656;28;20805;-81
2022/02/25 01:56:59;;;;;;;5.20;3.03;;;3.30;97.30;;;;;;5040503;28;20505;-81
2022/02/25 01:59:26;;;;;;;5.43;2.90;;;3.30;97.30;;;;;;5058050;28;20422;-81
2022/02/25 02:01:52;;;;;;;4.87;3.03;;;3.30;97.30;;;;;;5040282;28;20454;-81
2022/02/25 02:04:19;;;;;;;5.90;3.33;;;3.30;97.30;;;;;;5055984;28;20442;-81
2022/02/25 02:06:44;;;;;;;4.83;2.90;;;3.30;97.30;;;;;;5038963;28;20184;-81
2022/02/25 02:09:10;;;;;;;6.97;3.10;;;3.30;97.30;;;;;;5056767;28;20435;-80
2022/02/25 02:11:47;;;;;;;9.87;3.80;;;3.30;97.30;;;;;;5039321;28;20212;-81
2022/02/25 02:14:17;;;;;;;4.50;2.90;;;3.30;97.30;;;;;;5039174;28;20622;-81
2022/02/25 02:16:48;;;;;;;10.67;3.43;;;3.20;97.30;;;;;;5039517;28;20446;-81
2022/02/25 02:19:14;;;;;;;4.07;2.77;;;3.20;97.30;;;;;;5057984;28;20496;-81
2022/02/25 02:21:47;;;;;;;12.43;4.50;;;3.20;97.30;;;;;;5039721;28;20462;-81
2022/02/25 02:24:13;;;;;;;5.77;3.50;;;3.20;97.30;;;;;;5057343;28;20495;-81
2022/02/25 02:26:39;;;;;;;7.20;3.50;;;3.20;97.30;;;;;;5039531;28;20418;-81
2022/02/25 02:29:06;;;;;;;5.53;3.20;;;3.20;97.30;;;;;;5057488;28;20468;-81
2022/02/25 02:31:32;;;;;;;6.40;3.80;;;3.20;97.30;;;;;;5040066;28;20179;-81
2022/02/25 02:33:58;;;;;;;5.60;3.97;;;3.10;97.30;;;;;;5058109;28;20482;-80
2022/02/25 02:36:24;;;;;;;5.93;3.33;;;3.10;97.30;;;;;;5039045;28;21086;-80
2022/02/25 02:38:49;;;;;;;3.80;2.63;;;3.10;97.30;;;;;;5038669;28;20654;-81
2022/02/25 02:41:15;;;;;;;4.10;2.90;;;3.10;97.30;;;;;;5057191;28;20195;-81
2022/02/25 02:43:41;;;;;;;11.00;3.53;;;3.10;97.30;;;;;;5057934;28;20207;-81
2022/02/25 02:46:07;;;;;;;3.13;2.77;;;3.10;97.30;;;;;;5057492;28;20495;-81
2022/02/25 02:48:33;;;;;;;5.13;2.83;;;3.00;97.30;;;;;;5040306;28;20172;-81
2022/02/25 02:50:59;;;;;;;4.87;2.80;;;3.00;97.30;;;;;;5038675;28;20422;-81
2022/02/25 02:53:25;;;;;;;7.23;3.03;;;3.00;97.30;;;;;;5039932;28;20444;-80
2022/02/25 02:55:51;;;;;;;14.63;3.07;;;3.00;97.30;;;;;;5039527;28;20454;-81
2022/02/25 02:58:16;;;;;;;4.80;3.57;;;2.90;97.30;;;;;;5040857;28;20182;-80
2022/02/25 03:00:44;;;;;;;3.70;2.70;;;2.90;97.30;;;;;;5039433;28;20188;-81
2022/02/25 03:03:10;;;;;;;4.50;2.90;;;2.90;97.30;;;;;;5038716;28;20245;-81
2022/02/25 03:05:36;;;;;;;9.67;3.70;;;2.90;97.30;;;;;;5040268;28;20434;-81
2022/02/25 03:08:04;;;;;;;4.30;3.17;;;2.80;97.30;;;;;;5040670;28;20180;-80
2022/02/25 03:10:30;;;;;;;7.47;3.17;;;2.80;97.30;;;;;;5062461;28;20411;-81
2022/02/25 03:12:56;;;;;;;5.63;3.60;;;2.80;97.30;;;;;;5044444;28;20425;-80
2022/02/25 03:15:22;;;;;;;6.30;3.30;;;2.80;97.30;;;;;;5044584;28;20433;-80
2022/02/25 03:17:47;;;;;;;5.90;3.00;;;2.80;97.30;;;;;;5043696;28;20203;-81
2022/02/25 03:20:13;;;;;;;6.23;3.50;;;2.70;97.30;;;;;;5043049;28;20551;-81
2022/02/25 03:22:38;;;;;;;4.67;3.30;;;2.70;97.30;;;;;;5046361;28;20230;-81
2022/02/25 03:25:05;;;;;;;6.33;3.00;;;2.70;97.30;;;;;;5054287;28;20294;-81
2022/02/25 03:27:31;;;;;;;5.97;3.23;;;2.70;97.30;;;;;;5058759;28;20278;-81
2022/02/25 03:29:57;;;;;;;9.10;3.13;;;2.70;97.30;;;;;;5056964;28;20446;-81
2022/02/25 03:32:23;;;;;;;7.40;2.83;;;2.70;97.30;;;;;;5041531;28;20679;-81
2022/02/25 03:34:49;;;;;;;5.57;3.60;;;2.70;97.30;;;;;;5040189;28;20243;-81
2022/02/25 03:37:15;;;;;;;5.00;3.20;;;2.70;97.30;;;;;;5041170;28;20421;-80
2022/02/25 03:39:40;;;;;;;8.23;4.13;;;2.60;97.30;;;;;;5040763;28;20438;-81
2022/02/25 03:42:06;;;;;;;3.87;3.20;;;2.60;97.30;;;;;;5040677;28;20601;-81
2022/02/25 03:44:32;;;;;;;6.47;3.30;;;2.60;97.30;;;;;;5039890;28;20207;-81
2022/02/25 03:46:57;;;;;;;9.20;3.10;;;2.70;97.30;;;;;;5041744;28;20191;-81
2022/02/25 03:49:23;;;;;;;7.17;3.17;;;2.70;97.30;;;;;;5040492;28;20523;-81
2022/02/25 03:51:49;;;;;;;4.40;2.87;;;2.70;97.30;;;;;;5041059;28;20187;-81
2022/02/25 03:54:14;;;;;;;7.70;3.27;;;2.70;97.30;;;;;;5041459;28;20167;-82
2022/02/25 03:56:40;;;;;;;6.73;3.30;;;2.70;97.30;;;;;;5042430;28;20176;-81
2022/02/25 03:59:06;;;;;;;7.33;3.27;;;2.60;97.30;;;;;;5058188;28;20183;-80
2022/02/25 04:01:31;;;;;;;5.37;2.73;;;2.70;97.30;;;;;;5040911;28;20207;-81
2022/02/25 04:03:57;;;;;;;4.03;2.93;;;2.70;97.30;;;;;;5040012;28;20176;-80
2022/02/25 04:06:23;;;;;;;6.83;2.60;;;2.60;97.30;;;;;;5058715;28;20195;-81
2022/02/25 04:08:49;;;;;;;5.03;2.63;;;2.60;97.30;;;;;;5040353;28;20418;-81
2022/02/25 04:11:15;;;;;;;4.83;2.60;;;2.60;97.30;;;;;;5057533;28;20978;-81
2022/02/25 04:13:41;;;;;;;4.00;3.23;;;2.60;97.30;;;;;;5039396;28;20222;-81
2022/02/25 04:16:07;;;;;;;4.30;2.67;;;2.60;97.30;;;;;;5039759;28;20434;-83
2022/02/25 04:18:34;;;;;;;5.53;2.53;;;2.60;97.30;;;;;;5040430;28;20225;-80
2022/02/25 04:20:59;;;;;;;3.20;2.20;;;2.60;97.30;;;;;;5040124;28;20471;-81
2022/02/25 04:23:25;;;;;;;5.53;2.33;;;2.60;97.30;;;;;;5039781;28;20556;-82
2022/02/25 04:25:51;;;;;;;4.80;2.77;;;2.60;97.30;;;;;;5041080;28;20195;-82
2022/02/25 04:28:16;;;;;;;6.33;2.70;;;2.60;97.30;;;;;;5039240;28;20266;-82
2022/02/25 04:30:43;;;;;;;8.90;2.67;;;2.60;97.30;;;;;;5039258;28;20176;-82
2022/02/25 04:33:09;;;;;;;4.00;2.70;;;2.60;97.30;;;;;;5039849;28;20241;-82
2022/02/25 04:35:35;;;;;;;4.43;2.50;;;2.60;97.30;;;;;;5053087;28;20473;-82
2022/02/25 04:38:01;;;;;;;5.03;2.60;;;2.60;97.30;;;;;;5060115;28;20269;-82
2022/02/25 04:40:27;;;;;;;4.10;3.03;;;2.60;97.30;;;;;;5060248;28;20457;-82
2022/02/25 04:42:52;;;;;;;5.10;2.80;;;2.50;97.30;;;;;;5077858;28;20536;-81
2022/02/25 04:45:18;;;;;;;4.30;2.57;;;2.50;97.30;;;;;;5059278;28;20455;-82
2022/02/25 04:47:44;;;;;;;6.93;3.00;;;2.50;97.30;;;;;;5059542;28;20653;-82
2022/02/25 04:50:11;;;;;;;6.37;3.20;;;2.40;97.30;;;;;;5060466;28;20163;-83
2022/02/25 04:52:37;;;;;;;3.67;2.83;;;2.40;97.30;;;;;;5077226;28;20401;-82
2022/02/25 04:55:04;;;;;;;6.33;3.00;;;2.40;97.30;;;;;;5077037;28;20560;-83
2022/02/25 04:57:29;;;;;;;3.27;2.53;;;2.40;97.30;;;;;;5058887;28;20413;-82
2022/02/25 04:59:55;;;;;;;2.33;2.13;;;2.40;97.30;;;;;;5059609;28;20406;-82
2022/02/25 05:02:20;;;;;;;2.43;2.20;;;2.40;97.30;;;;;;5077963;28;20201;-82
2022/02/25 05:04:46;;;;;;;2.80;2.00;;;2.40;97.30;;;;;;5059995;28;20894;-82
2022/02/25 05:07:11;;;;;;;3.83;2.40;;;2.40;97.30;;;;;;5060608;28;20209;-83
2022/02/25 05:09:37;;;;;;;4.10;2.67;;;2.40;97.30;;;;;;5058572;28;20171;-81
2022/02/25 05:12:03;;;;;;;3.60;2.60;;;2.40;97.30;;;;;;5058414;28;20201;-83
2022/02/25 05:20:15;;;;;;;4.47;2.90;;;2.40;97.30;;;;;;5057046;28;20418;-82
2022/02/25 05:22:42;;;;;;;5.50;2.53;;;2.40;97.30;;;;;;5038853;28;20454;-82
2022/02/25 05:25:09;;;;;;;6.10;2.93;;;2.30;97.30;;;;;;5053767;28;20430;-83
2022/02/25 05:27:34;;;;;;;3.73;2.17;;;2.30;97.30;;;;;;5056083;28;20442;-83
2022/02/25 05:30:00;;;;;;;2.97;2.67;;;2.30;97.30;;;;;;5056123;28;20429;-83
2022/02/25 05:32:25;;;;;;;4.53;2.10;;;2.30;97.30;;;;;;5047502;28;20222;-83
2022/02/25 05:34:51;;;;;;;5.10;2.60;;;2.30;97.30;;;;;;5039078;28;20234;-82
2022/02/25 05:37:16;;;;;;;5.13;2.77;;;2.30;97.30;;;;;;5038295;28;20533;-83
2022/02/25 05:39:42;;;;;;;3.80;2.20;;;2.20;97.30;;;;;;5052616;28;20194;-83
2022/02/25 05:42:08;;;;;;;3.97;2.30;;;2.20;97.30;;;;;;5039664;28;20200;-82
2022/02/25 05:44:34;;;;;;;10.17;3.07;;;2.20;97.30;;;;;;5024945;28;20188;-82
2022/02/25 05:46:59;;;;;;;11.17;4.10;;;2.20;97.30;;;;;;5046242;28;21016;-82
2022/02/25 05:49:25;;;;;;;6.43;3.00;;;2.10;97.30;;;;;;5030828;28;20168;-82
2022/02/25 05:51:51;;;;;;;4.30;3.00;;;2.10;97.30;;;;;;5056808;28;20186;-82
2022/02/25 05:54:16;;;;;;;12.50;4.83;;;2.10;97.30;;;;;;5057753;28;20438;-82
2022/02/25 05:56:42;;;;;;;11.80;3.23;;;2.10;97.30;;;;;;5056767;28;20176;-82
2022/02/25 05:59:07;;;;;;;6.57;2.90;;;2.00;97.30;;;;;;5040161;28;20287;-82
2022/02/25 06:01:34;;;;;;;6.17;2.00;;;2.00;97.30;;;;;;5019313;28;20175;-82
2022/02/25 06:04:00;;;;;;;4.23;2.67;;;2.00;97.30;;;;;;5037526;28;20654;-82
2022/02/25 06:06:26;;;;;;;3.80;2.43;;;2.00;97.30;;;;;;5038268;28;20510;-82
2022/02/25 06:08:51;;;;;;;7.10;2.10;;;2.00;97.30;;;;;;5018734;28;20184;-83
2022/02/25 06:11:17;;;;;;;4.20;2.17;;;2.00;97.30;;;;;;5017840;28;20186;-82
2022/02/25 06:13:42;;;;;;;2.87;1.70;;;2.00;97.30;;;;;;5038545;28;20184;-82
2022/02/25 06:16:07;;;;;;;3.07;2.23;;;2.00;97.30;;;;;;5032937;28;20218;-82
2022/02/25 06:18:34;;;;;;;2.43;1.90;;;2.00;97.30;;;;;;5040720;28;20180;-82
2022/02/25 06:21:00;;;;;;;3.53;2.27;;;2.00;97.30;;;;;;5038789;28;20183;-82
2022/02/25 06:23:26;;;;;;;2.30;1.83;;;2.00;97.30;;;;;;5038963;28;21143;-83
2022/02/25 06:25:54;;;;;;;2.40;1.93;;;2.10;97.30;;;;;;5038218;28;20466;-82
2022/02/25 06:28:20;;;;;;;5.80;1.93;;;2.10;97.30;;;;;;5037985;28;20207;-83
2022/02/25 06:30:45;;;;;;;6.53;2.50;;;2.20;97.30;;;;;;5056156;28;20900;-82
2022/02/25 06:33:11;;;;;;;2.10;1.57;;;2.20;97.30;;;;;;5034672;28;21291;-83
2022/02/25 06:35:37;;;;;;;1.93;1.83;;;2.20;97.30;;;;;;5018383;28;20239;-82
2022/02/25 06:38:02;;;;;;;5.17;2.90;;;2.20;97.30;;;;;;5035429;28;20173;-82
2022/02/25 06:40:28;;;;;;;3.63;2.03;;;2.20;97.30;;;;;;5037248;28;20565;-82
2022/02/25 06:42:54;;;;;;;2.63;1.63;;;2.20;97.30;;;;;;5054826;28;20290;-82
2022/02/25 06:45:20;;;;;;;2.43;2.10;;;2.20;97.30;;;;;;5031408;28;20222;-82
2022/02/25 06:47:46;;;;;;;2.87;2.13;;;2.30;97.30;;;;;;5034616;28;20184;-82
2022/02/25 06:50:13;;;;;;;3.03;2.30;;;2.40;97.30;;;;;;5047391;28;20441;-82
2022/02/25 06:52:38;;;;;;;5.00;1.80;;;2.50;97.30;;;;;;5055775;28;20462;-82
2022/02/25 06:55:05;;;;;;;2.70;1.73;;;2.60;97.30;;;;;;5040172;28;20611;-82
2022/02/25 06:57:30;;;;;;;9.23;2.27;;;2.70;97.30;;;;;;5057935;28;20736;-82
2022/02/25 06:59:56;;;;;;;4.00;2.20;;;2.70;97.30;;;;;;5041245;28;20437;-82
2022/02/25 07:02:21;;;;;;;3.63;1.90;;;2.70;97.30;;;;;;5033976;28;20265;-82
2022/02/25 07:04:47;;;;;;;2.43;2.00;;;2.70;97.30;;;;;;5046822;28;20211;-82
2022/02/25 07:07:12;;;;;;;2.37;1.70;;;2.70;97.30;;;;;;5027122;28;20291;-82
2022/02/25 07:09:40;;;;;;;4.50;2.30;;;2.70;97.30;;;;;;5045897;28;20252;-82
2022/02/25 07:12:06;;;;;;;3.80;2.43;;;2.70;97.30;;;;;;5060429;23;20750;-90
2022/02/25 07:14:33;;;;;;;7.13;2.57;;;2.70;97.30;;;;;;5040856;28;20940;-90
2022/02/25 07:17:01;;;;;;;3.00;2.20;;;2.80;97.30;;;;;;5043443;28;20422;-90
2022/02/25 07:19:26;;;;;;;9.17;2.73;;;2.90;97.30;;;;;;5042409;28;20418;-90
2022/02/25 07:21:52;;;;;;;14.73;2.53;;;2.90;97.30;;;;;;5045500;28;20549;-89
2022/02/25 07:24:18;;;;;;;5.17;2.87;;;3.00;97.30;;;;;;5042266;28;20203;-91
2022/02/25 07:26:44;;;;;;;6.77;2.80;;;3.10;97.30;;;;;;5036780;28;20191;-90
2022/02/25 07:29:10;;;;;;;7.63;2.50;;;3.20;97.30;;;;;;5040146;28;20193;-90
2022/02/25 07:31:36;;;;;;;3.43;2.20;;;3.30;97.30;;;;;;5036831;28;20631;-89
2022/02/25 07:34:04;;;;;;;4.40;2.97;;;3.30;97.30;;;;;;5040376;28;20565;-89
2022/02/25 07:36:29;;;;;;;3.60;2.33;;;3.40;97.30;;;;;;5036742;28;20436;-91
2022/02/25 07:38:55;;;;;;;6.50;3.00;;;3.50;97.30;;;;;;5036501;28;20423;-91
2022/02/25 07:41:20;;;;;;;6.77;2.90;;;3.50;97.30;;;;;;5037703;28;20873;-90
2022/02/25 07:43:46;;;;;;;4.23;3.10;;;3.50;97.30;;;;;;5032473;28;20250;-90
2022/02/25 07:46:11;;;;;;;6.00;3.00;;;3.50;97.30;;;;;;5041930;28;20222;-91
2022/02/25 07:48:37;;;;;;;4.50;2.80;;;3.40;97.30;;;;;;5047668;28;20200;-90
2022/02/25 07:51:02;;;;;;;5.67;3.17;;;3.40;97.30;;;;;;5047529;28;20204;-90
2022/02/25 07:53:30;;;;;;;4.27;3.07;;;3.50;97.30;;;;;;5039797;28;20176;-91
2022/02/25 07:55:58;;;;;;;8.77;2.70;;;3.70;97.30;;;;;;5046846;28;20173;-90
2022/02/25 07:58:24;;;;;;;5.83;2.77;;;3.80;97.30;;;;;;5049924;28;20925;-89
2022/02/25 08:00:49;;;;;;;5.60;3.20;;;4.00;97.30;;;;;;5038991;28;20477;-90
2022/02/25 08:03:19;;;;;;;4.40;2.50;;;4.10;97.30;;;;;;5045379;28;20682;-89
2022/02/25 08:05:45;;;;;;;4.93;2.70;;;4.10;97.30;;;;;;5039950;28;20176;-90
2022/02/25 08:08:11;;;;;;;7.17;2.97;;;4.10;97.30;;;;;;5051148;28;20449;-90
2022/02/25 08:10:36;;;;;;;2.70;2.50;;;4.20;97.30;;;;;;5055232;28;20172;-90
2022/02/25 08:13:04;;;;;;;15.67;5.20;;;4.10;97.10;;;;;;5045469;28;20224;-91
2022/02/25 08:15:33;;;;;;;3.97;2.63;;;4.10;97.30;;;;;;5048960;28;20237;-91
2022/02/25 08:17:59;;;;;;;5.90;2.63;;;4.10;97.30;;;;;;5042633;28;20409;-90
2022/02/25 08:20:25;;;;;;;6.43;2.60;;;4.10;97.20;;;;;;5039209;28;20414;-90
2022/02/25 08:22:51;;;;;;;5.97;2.70;;;4.10;97.10;;;;;;5036069;28;20524;-89
2022/02/25 08:25:19;;;;;;;7.13;2.87;;;4.20;97.30;;;;;;5044742;28;20172;-90
2022/02/25 08:27:44;;;;;;;3.57;2.33;;;4.20;96.90;;;;;;5050166;28;20415;-90
2022/02/25 08:30:14;;;;;;;11.77;2.67;;;4.20;97.00;;;;;;5044297;28;20547;-91
2022/02/25 08:32:42;;;;;;;3.47;2.60;;;4.30;97.00;;;;;;5042538;28;20242;-90
2022/02/25 08:35:09;;;;;;;3.47;2.70;;;4.30;96.60;;;;;;5034242;28;20975;-90
2022/02/25 08:37:38;;;;;;;7.37;3.00;;;4.30;96.60;;;;;;5033889;28;20917;-91
2022/02/25 08:40:06;;;;;;;4.50;2.90;;;4.30;96.50;;;;;;5036442;28;20430;-90
2022/02/25 08:42:35;;;;;;;6.13;3.07;;;4.30;96.30;;;;;;5058786;28;20459;-90
2022/02/25 08:45:02;;;;;;;2.90;2.20;;;4.40;96.50;;;;;;5048697;28;20418;-92
2022/02/25 08:47:30;;;;;;;3.60;2.47;;;4.40;96.50;;;;;;5046756;28;20472;-90
2022/02/25 08:49:56;;;;;;;5.97;2.30;;;4.50;96.20;;;;;;5038432;28;20777;-91
2022/02/25 08:52:22;;;;;;;4.40;2.33;;;4.70;96.10;;;;;;5044047;28;20450;-92
2022/02/25 08:54:47;;;;;;;2.67;2.10;;;5.00;95.30;;;;;;5049125;28;20196;-89
2022/02/25 08:57:13;;;;;;;2.87;2.17;;;5.00;94.20;;;;;;5045524;28;20199;-91
2022/02/25 08:59:39;;;;;;;4.90;2.30;;;5.00;94.10;;;;;;5035995;28;20290;-91
2022/02/25 09:02:06;;;;;;;3.70;2.47;;;5.00;94.50;;;;;;5042890;28;20221;-91
2022/02/25 09:04:31;;;;;;;4.10;2.20;;;5.00;93.90;;;;;;5051019;28;20427;-93
2022/02/25 09:06:57;;;;;;;6.43;2.90;;;5.00;93.40;;;;;;5036274;28;20484;-91
2022/02/25 09:09:22;;;;;;;9.97;2.43;;;5.10;93.30;;;;;;5038245;28;20176;-91
2022/02/25 09:11:48;;;;;;;8.43;2.63;;;5.30;93.20;;;;;;5059643;28;20239;-90
2022/02/25 09:14:14;;;;;;;5.20;2.30;;;5.30;93.10;;;;;;5042026;28;20184;-90
2022/02/25 09:16:40;;;;;;;2.10;1.97;;;5.40;93.20;;;;;;5042681;28;20190;-90
2022/02/25 09:19:07;;;;;;;3.57;2.00;;;5.40;92.70;;;;;;5037731;28;20620;-89
2022/02/25 09:21:33;;;;;;;6.20;2.73;;;5.30;92.30;;;;;;5049791;28;20445;-90
2022/02/25 09:24:01;;;;;;;5.37;2.30;;;5.20;92.60;;;;;;5049867;28;20465;-92
2022/02/25 09:26:29;;;;;;;12.47;2.70;;;5.10;93.10;;;;;;5047663;28;20422;-89
2022/02/25 09:28:57;;;;;;;3.37;2.30;;;5.10;93.00;;;;;;5050210;28;20423;-90
2022/02/25 09:31:22;;;;;;;3.90;2.07;;;5.10;93.20;;;;;;5049226;28;20513;-89
2022/02/25 09:33:48;;;;;;;3.40;2.00;;;5.20;93.30;;;;;;5050320;28;20497;-90
2022/02/25 09:36:13;;;;;;;6.07;2.37;;;5.20;92.70;;;;;;5049900;28;20410;-89
2022/02/25 09:38:40;;;;;;;3.50;1.97;;;5.40;93.30;;;;;;5050749;28;20698;-91
2022/02/25 09:41:06;;;;;;;3.43;1.70;;;5.60;92.00;;;;;;5044770;28;20647;-90
2022/02/25 09:43:32;;;;;;;4.77;2.20;;;5.90;92.00;;;;;;5049534;28;20478;-90
2022/02/25 09:46:02;;;;;;;11.93;2.27;;;6.00;90.90;;;;;;5048519;28;20175;-91
2022/02/25 09:48:28;;;;;;;4.60;2.10;;;5.80;90.50;;;;;;5045151;28;20406;-90
2022/02/25 09:50:54;;;;;;;5.23;2.60;;;5.60;90.60;;;;;;5051414;28;20411;-90
2022/02/25 09:53:24;;;;;;;3.40;1.93;;;5.70;90.60;;;;;;5053221;28;20180;-87
2022/02/25 09:55:49;;;;;;;3.53;1.90;;;5.90;90.60;;;;;;5042259;28;20426;-90
2022/02/25 09:58:15;;;;;;;10.37;2.30;;;6.00;90.40;;;;;;5047559;28;20471;-91
2022/02/25 10:00:43;;;;;;;4.33;1.67;;;6.00;89.20;;;;;;5047137;28;20198;-90
2022/02/25 10:03:17;;;;;;;4.00;1.90;;;5.90;89.50;;;;;;5047148;28;20290;-91
2022/02/25 10:05:44;;;;;;;8.10;2.13;;;6.20;90.30;;;;;;5042453;28;20550;-92
2022/02/25 10:08:16;;;;;;;3.27;1.77;;;6.50;89.80;;;;;;5050356;28;20427;-90
2022/02/25 10:10:52;;;;;;;5.80;1.73;;;6.50;88.70;;;;;;5043885;28;20435;-90
2022/02/25 10:13:21;;;;;;;17.73;4.10;;;6.30;88.10;;;;;;5063145;28;20427;-91
2022/02/25 10:16:01;;;;;;;4.67;2.27;;;6.20;88.50;;;;;;5052381;28;20429;-90
2022/02/25 10:18:33;;;;;;;6.20;1.83;;;6.20;89.10;;;;;;5047134;28;20553;-91
2022/02/25 10:21:31;;;;;;;1.70;1.33;;;6.00;88.90;;;;;;5047064;28;20465;-93
2022/02/25 10:24:14;;;;;;;9.10;2.73;;;6.10;89.40;;;;;;5036311;28;20569;-90
2022/02/25 10:26:42;;;;;;;7.33;2.10;;;6.20;89.30;;;;;;5046825;28;20431;-91
2022/02/25 10:29:09;;;;;;;4.67;2.30;;;6.20;89.40;;;;;;5038711;28;20431;-93
2022/02/25 10:31:41;;;;;;;13.10;2.30;;;6.20;89.90;;;;;;5057350;28;20466;-92
2022/02/25 10:34:10;;;;;;;2.60;1.80;;;6.30;88.90;;;;;;5053883;28;20423;-92
2022/02/25 10:36:47;;;;;;;2.30;1.40;;;6.20;88.40;;;;;;5047499;28;20442;-91
2022/02/25 10:39:17;;;;;;;2.70;1.73;;;6.30;88.80;;;;;;5035612;28;21071;-92
2022/02/25 10:42:11;;;;;;;3.23;1.70;;;6.50;88.60;;;;;;5030557;28;20558;-93
2022/02/25 10:44:44;;;;;;;5.47;2.17;;;6.70;87.80;;;;;;5029357;28;20431;-92
2022/02/25 10:47:19;;;;;;;3.90;2.00;;;6.90;87.70;;;;;;5029501;28;20943;-91
2022/02/25 10:49:46;;;;;;;8.60;2.07;;;6.70;86.80;;;;;;5029439;28;20512;-91
2022/02/25 10:52:24;;;;;;;6.37;1.70;;;6.60;87.40;;;;;;5041025;28;20442;-91
2022/02/25 10:54:51;;;;;;;2.60;1.80;;;6.70;87.60;;;;;;5037018;28;20850;-92
2022/02/25 10:57:19;;;;;;;6.83;1.80;;;6.80;87.40;;;;;;5036003;28;20942;-90
2022/02/25 10:59:46;;;;;;;4.73;1.80;;;6.70;86.40;;;;;;5037316;28;20458;-92
2022/02/25 11:02:27;;;;;;;2.90;1.50;;;6.50;86.60;;;;;;5042427;28;20964;-92
2022/02/25 11:05:00;;;;;;;3.27;1.73;;;6.30;87.60;;;;;;5047159;28;20505;-91
2022/02/25 11:07:29;;;;;;;5.40;2.13;;;6.30;87.90;;;;;;5042761;28;20463;-91
2022/02/25 11:09:57;;;;;;;5.30;1.90;;;6.30;87.90;;;;;;5039611;28;20411;-91
2022/02/25 11:12:25;;;;;;;3.50;1.87;;;6.30;87.70;;;;;;5036501;28;20484;-91
2022/02/25 11:14:52;;;;;;;4.03;1.57;;;6.30;87.60;;;;;;5039292;28;20430;-91
2022/02/25 11:17:19;;;;;;;4.93;1.80;;;6.30;88.40;;;;;;5046597;28;20422;-92
2022/02/25 11:19:50;;;;;;;4.07;1.67;;;6.30;87.60;;;;;;5036055;28;20512;-90
2022/02/25 11:22:18;;;;;;;2.40;1.70;;;6.40;88.20;;;;;;5051444;28;20997;-92
2022/02/25 11:24:48;;;;;;;4.20;1.50;;;6.40;87.00;;;;;;5041913;28;20983;-92
2022/02/25 11:27:14;;;;;;;6.00;1.70;;;6.40;87.50;;;;;;5030959;28;20422;-92
2022/02/25 11:29:57;;;;;;;2.60;1.50;;;6.50;86.80;;;;;;5041153;28;20940;-91
2022/02/25 11:32:31;;;;;;;6.57;2.20;;;6.50;87.20;;;;;;5048973;28;20449;-90
2022/02/25 11:34:57;;;;;;;2.03;1.63;;;6.70;87.90;;;;;;5044796;28;20411;-91
2022/02/25 11:37:44;;;;;;;4.60;2.10;;;7.00;87.20;;;;;;5049011;28;20511;-91
2022/02/25 11:40:12;;;;;;;5.67;1.80;;;7.10;86.30;;;;;;5042864;28;20461;-91
2022/02/25 11:42:40;;;;;;;2.83;1.73;;;7.10;86.10;;;;;;5039387;28;20465;-91
2022/02/25 11:45:25;;;;;;;3.77;1.57;;;7.00;85.90;;;;;;5050120;28;20426;-91
2022/02/25 11:48:00;;;;;;;3.20;2.33;;;7.10;85.70;;;;;;5047577;28;20429;-90
2022/02/25 11:50:34;;;;;;;5.27;1.53;;;7.10;85.70;;;;;;5050074;28;20801;-91
2022/02/25 11:54:03;;;;;;;3.03;1.40;;;7.10;86.30;;;;;;5048847;28;20446;-90
2022/02/25 11:56:42;;;;;;;2.30;1.10;;;7.00;85.00;;;;;;4992105;28;20428;-91
2022/02/25 11:59:12;;;;;;;5.47;1.70;;;7.00;84.40;;;;;;5039157;28;20430;-89
2022/02/25 12:02:16;;;;;;;6.50;1.50;;;7.00;84.80;;;;;;5051694;28;20515;-90
2022/02/25 12:05:06;;;;;;;9.33;1.83;;;6.90;85.20;;;;;;5046736;28;20472;-91
2022/02/25 12:07:40;;;;;;;3.20;1.53;;;6.90;86.30;;;;;;5053302;28;20427;-90
2022/02/25 12:10:12;;;;;;;5.43;1.67;;;7.10;85.50;;;;;;5044456;28;20419;-91
2022/02/25 12:13:03;;;;;;;5.70;2.23;;;7.20;85.90;;;;;;5051667;28;20517;-91
2022/02/25 12:15:37;;;;;;;5.03;1.40;;;7.20;85.40;;;;;;5035487;28;20411;-92
2022/02/25 12:18:05;;;;;;;4.90;1.77;;;7.20;84.50;;;;;;5050509;28;20476;-91
2022/02/25 12:20:35;;;;;;;10.80;1.90;;;7.10;84.40;;;;;;5054556;28;20430;-93
2022/02/25 12:23:08;;;;;;;7.60;1.77;;;7.00;84.30;;;;;;5054608;28;20481;-90
2022/02/25 12:25:39;;;;;;;2.47;1.47;;;6.90;84.70;;;;;;5055063;28;20505;-91
2022/02/25 12:28:20;;;;;;;10.20;2.10;;;6.90;84.80;;;;;;5034471;28;20766;-91
2022/02/25 12:30:55;;;;;;;2.87;1.63;;;6.80;84.90;;;;;;5045786;28;20776;-90
2022/02/25 12:33:42;;;;;;;4.03;1.77;;;6.80;85.40;;;;;;5049287;28;20444;-90
2022/02/25 12:36:27;;;;;;;7.47;2.00;;;6.60;85.90;;;;;;5042375;28;20427;-91
2022/02/25 12:39:01;;;;;;;3.17;1.33;;;6.50;86.30;;;;;;5051332;28;20437;-90
2022/02/25 12:41:48;;;;;;;2.90;1.30;;;6.40;86.90;;;;;;5047127;28;20497;-90
2022/02/25 12:44:22;;;;;;;3.60;1.30;;;6.30;87.30;;;;;;5052591;28;20419;-90
2022/02/25 12:47:03;;;;;;;3.83;1.30;;;6.20;87.10;;;;;;5054763;28;20406;-91
2022/02/25 12:49:32;;;;;;;5.77;1.57;;;6.20;87.40;;;;;;5054805;28;20937;-90
2022/02/25 12:52:00;;;;;;;3.40;1.50;;;6.20;87.80;;;;;;5053910;28;20426;-92
2022/02/25 12:54:28;;;;;;;2.87;1.60;;;6.20;87.60;;;;;;5054342;28;20775;-89
2022/02/25 12:56:59;;;;;;;4.27;2.20;;;6.20;87.80;;;;;;5054513;28;20425;-91
2022/02/25 12:59:35;;;;;;;5.33;1.40;;;6.20;87.80;;;;;;5054618;28;20438;-90
2022/02/25 13:02:04;;;;;;;6.20;2.17;;;6.20;88.20;;;;;;5055753;28;20458;-90
2022/02/25 13:04:32;;;;;;;5.90;1.53;;;6.10;88.10;;;;;;5056142;28;20438;-90